sensor_id;sensor_type;location;lat;lon;timestamp;temperature;humidity
16867;DHT22;8550;52.596;13.320;2024-01-10T00:01:07;-7.70;99.90
16867;DHT22;8550;52.596;13.320;2024-01-10T00:06:10;-7.60;99.90
16867;DHT22;8550;52.596;13.320;2024-01-10T00:11:12;-7.70;99.90
16867;DHT22;8550;52.596;13.320;2024-01-10T00:16:15;-7.70;99.90
16867;DHT22;8550;52.596;13.320;2024-01-10T00:21:17;-7.60;99.90
16867;DHT22;8550;52.596;13.320;2024-01-10T00:26:19;-7.70;99.90
16867;DHT22;8550;52.596;13.320;2024-01-10T00:31:24;-7.60;99.90
16867;DHT22;8550;52.596;13.320;2024-01-10T00:36:26;-7.60;99.90
16867;DHT22;8550;52.596;13.320;2024-01-10T00:41:28;-7.60;99.90
16867;DHT22;8550;52.596;13.320;2024-01-10T00:46:32;-7.50;99.90
16867;DHT22;8550;52.596;13.320;2024-01-10T00:51:34;-7.50;99.90
16867;DHT22;8550;52.596;13.320;2024-01-10T00:56:36;-7.50;99.90
16867;DHT22;8550;52.596;13.320;2024-01-10T01:01:40;-7.40;99.90
16867;DHT22;8550;52.596;13.320;2024-01-10T01:06:42;-7.40;99.90
16867;DHT22;8550;52.596;13.320;2024-01-10T01:11:44;-7.40;99.90
16867;DHT22;8550;52.596;13.320;2024-01-10T01:16:47;-7.30;99.90
16867;DHT22;8550;52.596;13.320;2024-01-10T01:21:49;-7.30;99.90
16867;DHT22;8550;52.596;13.320;2024-01-10T01:26:51;-7.40;99.90
16867;DHT22;8550;52.596;13.320;2024-01-10T01:31:54;-7.40;99.90
16867;DHT22;8550;52.596;13.320;2024-01-10T01:36:56;-7.40;99.90
16867;DHT22;8550;52.596;13.320;2024-01-10T01:41:58;-7.40;99.90
16867;DHT22;8550;52.596;13.320;2024-01-10T01:47:01;-7.40;99.90
16867;DHT22;8550;52.596;13.320;2024-01-10T01:52:05;-7.40;99.90
16867;DHT22;8550;52.596;13.320;2024-01-10T01:57:07;-7.50;99.90
16867;DHT22;8550;52.596;13.320;2024-01-10T02:02:11;-7.50;99.90
16867;DHT22;8550;52.596;13.320;2024-01-10T02:07:14;-7.50;99.90
16867;DHT22;8550;52.596;13.320;2024-01-10T02:12:16;-7.60;99.90
16867;DHT22;8550;52.596;13.320;2024-01-10T02:17:20;-7.70;99.90
16867;DHT22;8550;52.596;13.320;2024-01-10T02:22:22;-7.80;99.90
16867;DHT22;8550;52.596;13.320;2024-01-10T02:27:26;-7.80;99.90
16867;DHT22;8550;52.596;13.320;2024-01-10T02:32:28;-7.80;99.90
16867;DHT22;8550;52.596;13.320;2024-01-10T02:37:30;-7.90;99.90
16867;DHT22;8550;52.596;13.320;2024-01-10T02:42:33;-7.90;99.90
16867;DHT22;8550;52.596;13.320;2024-01-10T02:47:35;-7.90;99.90
16867;DHT22;8550;52.596;13.320;2024-01-10T02:52:38;-7.80;99.90
16867;DHT22;8550;52.596;13.320;2024-01-10T02:57:41;-7.80;99.90
16867;DHT22;8550;52.596;13.320;2024-01-10T03:02:43;-7.80;99.90
16867;DHT22;8550;52.596;13.320;2024-01-10T03:07:45;-7.80;99.90
16867;DHT22;8550;52.596;13.320;2024-01-10T03:12:49;-7.90;99.90
16867;DHT22;8550;52.596;13.320;2024-01-10T03:17:51;-7.80;99.90
16867;DHT22;8550;52.596;13.320;2024-01-10T03:22:53;-7.80;99.90
16867;DHT22;8550;52.596;13.320;2024-01-10T03:27:57;-7.80;99.90
16867;DHT22;8550;52.596;13.320;2024-01-10T03:32:59;-7.90;99.90
16867;DHT22;8550;52.596;13.320;2024-01-10T03:38:01;-7.90;99.90
16867;DHT22;8550;52.596;13.320;2024-01-10T03:43:04;-8.00;99.90
16867;DHT22;8550;52.596;13.320;2024-01-10T03:48:07;-8.00;99.90
16867;DHT22;8550;52.596;13.320;2024-01-10T03:53:10;-7.90;99.90
16867;DHT22;8550;52.596;13.320;2024-01-10T03:58:14;-7.90;99.90
16867;DHT22;8550;52.596;13.320;2024-01-10T04:03:16;-8.00;99.90
16867;DHT22;8550;52.596;13.320;2024-01-10T04:08:18;-8.10;99.90
16867;DHT22;8550;52.596;13.320;2024-01-10T04:13:21;-8.00;99.90
16867;DHT22;8550;52.596;13.320;2024-01-10T04:18:23;-8.10;99.90
16867;DHT22;8550;52.596;13.320;2024-01-10T04:23:25;-8.10;99.90
16867;DHT22;8550;52.596;13.320;2024-01-10T04:28:29;-8.10;99.90
16867;DHT22;8550;52.596;13.320;2024-01-10T04:33:31;-8.10;99.90
16867;DHT22;8550;52.596;13.320;2024-01-10T04:38:33;-8.10;99.90
16867;DHT22;8550;52.596;13.320;2024-01-10T04:43:36;-8.10;99.90
16867;DHT22;8550;52.596;13.320;2024-01-10T04:48:38;-8.20;99.90
16867;DHT22;8550;52.596;13.320;2024-01-10T04:53:40;-8.10;99.90
16867;DHT22;8550;52.596;13.320;2024-01-10T04:58:43;-8.30;99.90
16867;DHT22;8550;52.596;13.320;2024-01-10T05:03:46;-8.40;99.90
16867;DHT22;8550;52.596;13.320;2024-01-10T05:08:48;-8.30;99.90
16867;DHT22;8550;52.596;13.320;2024-01-10T05:13:52;-8.30;99.90
16867;DHT22;8550;52.596;13.320;2024-01-10T05:18:54;-8.20;99.90
16867;DHT22;8550;52.596;13.320;2024-01-10T05:23:56;-8.30;99.90
16867;DHT22;8550;52.596;13.320;2024-01-10T05:28:59;-8.40;99.90
16867;DHT22;8550;52.596;13.320;2024-01-10T05:34:02;-8.40;99.90
16867;DHT22;8550;52.596;13.320;2024-01-10T05:39:05;-8.40;99.90
16867;DHT22;8550;52.596;13.320;2024-01-10T05:44:09;-8.30;99.90
16867;DHT22;8550;52.596;13.320;2024-01-10T05:49:11;-8.40;99.90
16867;DHT22;8550;52.596;13.320;2024-01-10T05:54:13;-8.40;99.90
16867;DHT22;8550;52.596;13.320;2024-01-10T05:59:18;-8.40;99.90
16867;DHT22;8550;52.596;13.320;2024-01-10T06:04:20;-8.30;99.90
16867;DHT22;8550;52.596;13.320;2024-01-10T06:09:22;-8.30;99.90
16867;DHT22;8550;52.596;13.320;2024-01-10T06:14:25;-8.40;99.90
16867;DHT22;8550;52.596;13.320;2024-01-10T06:19:27;-8.30;99.90
16867;DHT22;8550;52.596;13.320;2024-01-10T06:24:29;-8.40;99.90
16867;DHT22;8550;52.596;13.320;2024-01-10T06:29:33;-8.50;99.90
16867;DHT22;8550;52.596;13.320;2024-01-10T06:34:34;-8.50;99.90
16867;DHT22;8550;52.596;13.320;2024-01-10T06:39:36;-8.70;99.90
16867;DHT22;8550;52.596;13.320;2024-01-10T06:44:40;-8.70;99.90
16867;DHT22;8550;52.596;13.320;2024-01-10T06:49:42;-8.60;99.90
16867;DHT22;8550;52.596;13.320;2024-01-10T06:54:43;-8.50;99.90
16867;DHT22;8550;52.596;13.320;2024-01-10T06:59:47;-8.50;99.90
16867;DHT22;8550;52.596;13.320;2024-01-10T07:04:49;-8.60;99.90
16867;DHT22;8550;52.596;13.320;2024-01-10T07:09:50;-8.50;99.90
16867;DHT22;8550;52.596;13.320;2024-01-10T07:14:54;-8.50;99.90
16867;DHT22;8550;52.596;13.320;2024-01-10T07:20:03;-8.40;99.90
16867;DHT22;8550;52.596;13.320;2024-01-10T07:25:06;-8.30;99.90
16867;DHT22;8550;52.596;13.320;2024-01-10T07:30:12;-8.30;99.90
16867;DHT22;8550;52.596;13.320;2024-01-10T07:35:15;-8.20;99.90
16867;DHT22;8550;52.596;13.320;2024-01-10T07:40:17;-8.10;99.90
16867;DHT22;8550;52.596;13.320;2024-01-10T07:45:21;-8.10;99.90
16867;DHT22;8550;52.596;13.320;2024-01-10T07:50:23;-8.10;99.90
16867;DHT22;8550;52.596;13.320;2024-01-10T07:55:27;-8.00;99.90
16867;DHT22;8550;52.596;13.320;2024-01-10T08:00:31;-7.90;99.90
16867;DHT22;8550;52.596;13.320;2024-01-10T08:05:33;-7.90;99.90
16867;DHT22;8550;52.596;13.320;2024-01-10T08:10:35;-7.70;99.90
16867;DHT22;8550;52.596;13.320;2024-01-10T08:15:38;-7.50;99.90
16867;DHT22;8550;52.596;13.320;2024-01-10T08:20:42;-7.50;99.90
16867;DHT22;8550;52.596;13.320;2024-01-10T08:25:44;-7.40;99.90
16867;DHT22;8550;52.596;13.320;2024-01-10T08:30:47;-7.30;99.90
16867;DHT22;8550;52.596;13.320;2024-01-10T08:35:49;-7.10;99.90
16867;DHT22;8550;52.596;13.320;2024-01-10T08:40:51;-7.00;99.90
16867;DHT22;8550;52.596;13.320;2024-01-10T08:45:55;-6.90;99.90
16867;DHT22;8550;52.596;13.320;2024-01-10T08:50:58;-6.70;99.90
16867;DHT22;8550;52.596;13.320;2024-01-10T08:56:00;-6.60;99.90
16867;DHT22;8550;52.596;13.320;2024-01-10T09:01:03;-6.50;99.90
16867;DHT22;8550;52.596;13.320;2024-01-10T09:06:06;-6.30;99.90
16867;DHT22;8550;52.596;13.320;2024-01-10T09:11:09;-6.20;99.90
16867;DHT22;8550;52.596;13.320;2024-01-10T09:16:12;-6.10;99.90
16867;DHT22;8550;52.596;13.320;2024-01-10T09:21:14;-6.10;99.90
16867;DHT22;8550;52.596;13.320;2024-01-10T09:26:16;-5.80;99.90
16867;DHT22;8550;52.596;13.320;2024-01-10T09:31:20;-5.90;99.90
16867;DHT22;8550;52.596;13.320;2024-01-10T09:36:22;-5.70;99.90
16867;DHT22;8550;52.596;13.320;2024-01-10T09:41:25;-5.50;99.90
16867;DHT22;8550;52.596;13.320;2024-01-10T09:46:33;-5.20;99.90
16867;DHT22;8550;52.596;13.320;2024-01-10T09:51:36;-5.00;99.90
16867;DHT22;8550;52.596;13.320;2024-01-10T09:56:39;-4.90;99.90
16867;DHT22;8550;52.596;13.320;2024-01-10T10:01:42;-4.80;99.90
16867;DHT22;8550;52.596;13.320;2024-01-10T10:06:44;-4.60;99.90
16867;DHT22;8550;52.596;13.320;2024-01-10T10:11:53;-4.50;99.90
16867;DHT22;8550;52.596;13.320;2024-01-10T10:16:56;-4.20;99.90
16867;DHT22;8550;52.596;13.320;2024-01-10T10:22:14;-3.90;99.90
16867;DHT22;8550;52.596;13.320;2024-01-10T10:27:16;-3.60;99.90
16867;DHT22;8550;52.596;13.320;2024-01-10T10:32:20;-2.60;99.90
16867;DHT22;8550;52.596;13.320;2024-01-10T10:37:21;-1.20;99.90
16867;DHT22;8550;52.596;13.320;2024-01-10T10:42:23;0.00;99.90
16867;DHT22;8550;52.596;13.320;2024-01-10T10:47:30;1.20;96.60
16867;DHT22;8550;52.596;13.320;2024-01-10T10:52:34;2.30;93.40
16867;DHT22;8550;52.596;13.320;2024-01-10T10:57:37;2.90;90.60
16867;DHT22;8550;52.596;13.320;2024-01-10T11:02:42;3.70;85.10
16867;DHT22;8550;52.596;13.320;2024-01-10T11:07:44;4.50;80.60
16867;DHT22;8550;52.596;13.320;2024-01-10T11:13:00;4.80;75.00
16867;DHT22;8550;52.596;13.320;2024-01-10T11:18:30;5.50;71.80
16867;DHT22;8550;52.596;13.320;2024-01-10T11:23:40;6.00;68.00
16867;DHT22;8550;52.596;13.320;2024-01-10T11:28:45;5.70;69.60
16867;DHT22;8550;52.596;13.320;2024-01-10T11:33:49;6.50;64.90
16867;DHT22;8550;52.596;13.320;2024-01-10T11:38:59;6.90;62.70
16867;DHT22;8550;52.596;13.320;2024-01-10T11:49:53;8.00;57.50
16867;DHT22;8550;52.596;13.320;2024-01-10T11:54:56;7.90;55.70
16867;DHT22;8550;52.596;13.320;2024-01-10T11:59:58;8.60;53.50
16867;DHT22;8550;52.596;13.320;2024-01-10T12:05:02;9.10;51.20
16867;DHT22;8550;52.596;13.320;2024-01-10T12:10:06;10.00;49.50
16867;DHT22;8550;52.596;13.320;2024-01-10T12:15:08;8.60;49.30
16867;DHT22;8550;52.596;13.320;2024-01-10T12:20:12;6.40;53.60
16867;DHT22;8550;52.596;13.320;2024-01-10T12:25:14;3.90;58.30
16867;DHT22;8550;52.596;13.320;2024-01-10T12:30:16;2.30;65.00
16867;DHT22;8550;52.596;13.320;2024-01-10T12:35:20;1.30;69.20
16867;DHT22;8550;52.596;13.320;2024-01-10T12:40:23;0.40;72.80
16867;DHT22;8550;52.596;13.320;2024-01-10T12:45:25;-0.10;76.60
16867;DHT22;8550;52.596;13.320;2024-01-10T12:50:28;-0.50;79.30
16867;DHT22;8550;52.596;13.320;2024-01-10T12:55:30;-0.70;81.40
16867;DHT22;8550;52.596;13.320;2024-01-10T13:00:34;-0.70;82.50
16867;DHT22;8550;52.596;13.320;2024-01-10T13:05:38;-0.10;83.60
16867;DHT22;8550;52.596;13.320;2024-01-10T13:10:40;-0.30;82.90
16867;DHT22;8550;52.596;13.320;2024-01-10T13:15:43;-0.40;82.80
16867;DHT22;8550;52.596;13.320;2024-01-10T13:20:46;-0.40;83.90
16867;DHT22;8550;52.596;13.320;2024-01-10T13:25:48;-0.50;85.20
16867;DHT22;8550;52.596;13.320;2024-01-10T13:30:50;-0.40;85.50
16867;DHT22;8550;52.596;13.320;2024-01-10T13:35:54;-0.50;86.80
16867;DHT22;8550;52.596;13.320;2024-01-10T13:40:56;-0.50;86.40
16867;DHT22;8550;52.596;13.320;2024-01-10T13:45:57;-0.50;86.60
16867;DHT22;8550;52.596;13.320;2024-01-10T13:51:03;-0.60;87.80
16867;DHT22;8550;52.596;13.320;2024-01-10T13:56:06;-0.50;88.40
16867;DHT22;8550;52.596;13.320;2024-01-10T14:01:08;-0.40;88.30
16867;DHT22;8550;52.596;13.320;2024-01-10T14:06:11;-0.20;87.70
16867;DHT22;8550;52.596;13.320;2024-01-10T14:11:13;-0.40;88.20
16867;DHT22;8550;52.596;13.320;2024-01-10T14:16:15;-0.60;89.70
16867;DHT22;8550;52.596;13.320;2024-01-10T14:21:19;-0.80;90.20
16867;DHT22;8550;52.596;13.320;2024-01-10T14:26:21;-1.00;91.00
16867;DHT22;8550;52.596;13.320;2024-01-10T14:31:23;-0.90;90.70
16867;DHT22;8550;52.596;13.320;2024-01-10T14:36:26;-0.90;90.80
16867;DHT22;8550;52.596;13.320;2024-01-10T14:41:28;-0.90;91.60
16867;DHT22;8550;52.596;13.320;2024-01-10T14:46:30;-0.60;91.70
16867;DHT22;8550;52.596;13.320;2024-01-10T14:51:33;-0.50;91.50
16867;DHT22;8550;52.596;13.320;2024-01-10T14:56:35;-0.50;92.10
16867;DHT22;8550;52.596;13.320;2024-01-10T15:01:37;-0.60;96.10
16867;DHT22;8550;52.596;13.320;2024-01-10T15:06:45;-1.20;96.40
16867;DHT22;8550;52.596;13.320;2024-01-10T15:11:47;-1.40;97.40
16867;DHT22;8550;52.596;13.320;2024-01-10T15:16:49;-1.50;98.10
16867;DHT22;8550;52.596;13.320;2024-01-10T15:21:52;-1.80;98.30
16867;DHT22;8550;52.596;13.320;2024-01-10T15:26:54;-1.90;99.20
16867;DHT22;8550;52.596;13.320;2024-01-10T15:31:56;-2.10;99.60
16867;DHT22;8550;52.596;13.320;2024-01-10T15:37:00;-2.10;99.80
16867;DHT22;8550;52.596;13.320;2024-01-10T15:42:02;-2.20;99.90
16867;DHT22;8550;52.596;13.320;2024-01-10T15:47:04;-2.40;99.90
16867;DHT22;8550;52.596;13.320;2024-01-10T15:52:07;-2.50;99.90
16867;DHT22;8550;52.596;13.320;2024-01-10T15:57:09;-2.50;99.90
16867;DHT22;8550;52.596;13.320;2024-01-10T16:02:11;-2.60;99.90
16867;DHT22;8550;52.596;13.320;2024-01-10T16:07:14;-2.70;99.90
16867;DHT22;8550;52.596;13.320;2024-01-10T16:12:16;-2.80;99.90
16867;DHT22;8550;52.596;13.320;2024-01-10T16:17:18;-2.90;99.90
16867;DHT22;8550;52.596;13.320;2024-01-10T16:22:25;-3.00;99.90
16867;DHT22;8550;52.596;13.320;2024-01-10T16:27:27;-3.00;99.90
16867;DHT22;8550;52.596;13.320;2024-01-10T16:32:29;-3.10;99.90
16867;DHT22;8550;52.596;13.320;2024-01-10T16:37:32;-3.20;99.90
16867;DHT22;8550;52.596;13.320;2024-01-10T16:42:34;-3.40;99.90
16867;DHT22;8550;52.596;13.320;2024-01-10T16:47:36;-3.50;99.90
16867;DHT22;8550;52.596;13.320;2024-01-10T16:52:40;-3.50;99.90
16867;DHT22;8550;52.596;13.320;2024-01-10T16:57:42;-3.60;99.90
16867;DHT22;8550;52.596;13.320;2024-01-10T17:02:44;-3.60;99.90
16867;DHT22;8550;52.596;13.320;2024-01-10T17:07:48;-3.70;99.90
16867;DHT22;8550;52.596;13.320;2024-01-10T17:12:50;-3.80;99.90
16867;DHT22;8550;52.596;13.320;2024-01-10T17:17:53;-3.90;99.90
16867;DHT22;8550;52.596;13.320;2024-01-10T17:22:59;-4.00;99.90
16867;DHT22;8550;52.596;13.320;2024-01-10T17:28:01;-4.10;99.90
16867;DHT22;8550;52.596;13.320;2024-01-10T17:33:04;-4.10;99.90
16867;DHT22;8550;52.596;13.320;2024-01-10T17:38:10;-4.20;99.90
16867;DHT22;8550;52.596;13.320;2024-01-10T17:43:12;-4.20;99.90
16867;DHT22;8550;52.596;13.320;2024-01-10T17:48:14;-4.20;99.90
16867;DHT22;8550;52.596;13.320;2024-01-10T17:53:17;-4.30;99.90
16867;DHT22;8550;52.596;13.320;2024-01-10T17:58:19;-4.30;99.90
16867;DHT22;8550;52.596;13.320;2024-01-10T18:03:21;-4.30;99.90
16867;DHT22;8550;52.596;13.320;2024-01-10T18:08:24;-4.50;99.90
16867;DHT22;8550;52.596;13.320;2024-01-10T18:13:26;-4.60;99.90
16867;DHT22;8550;52.596;13.320;2024-01-10T18:18:28;-4.50;99.90
16867;DHT22;8550;52.596;13.320;2024-01-10T18:23:34;-4.60;99.90
16867;DHT22;8550;52.596;13.320;2024-01-10T18:28:35;-4.70;99.90
16867;DHT22;8550;52.596;13.320;2024-01-10T18:33:37;-4.80;99.90
16867;DHT22;8550;52.596;13.320;2024-01-10T18:38:41;-4.80;99.90
16867;DHT22;8550;52.596;13.320;2024-01-10T18:43:43;-4.90;99.90
16867;DHT22;8550;52.596;13.320;2024-01-10T18:48:44;-5.00;99.90
16867;DHT22;8550;52.596;13.320;2024-01-10T18:53:48;-5.00;99.90
16867;DHT22;8550;52.596;13.320;2024-01-10T18:58:50;-5.00;99.90
16867;DHT22;8550;52.596;13.320;2024-01-10T19:03:51;-5.10;99.90
16867;DHT22;8550;52.596;13.320;2024-01-10T19:08:55;-5.10;99.90
16867;DHT22;8550;52.596;13.320;2024-01-10T19:13:57;-5.20;99.90
16867;DHT22;8550;52.596;13.320;2024-01-10T19:18:58;-5.20;99.90
16867;DHT22;8550;52.596;13.320;2024-01-10T19:24:03;-5.30;99.90
16867;DHT22;8550;52.596;13.320;2024-01-10T19:29:05;-5.40;99.90
16867;DHT22;8550;52.596;13.320;2024-01-10T19:34:07;-5.40;99.90
16867;DHT22;8550;52.596;13.320;2024-01-10T19:39:11;-5.40;99.90
16867;DHT22;8550;52.596;13.320;2024-01-10T19:44:13;-5.40;99.90
16867;DHT22;8550;52.596;13.320;2024-01-10T19:49:16;-5.50;99.90
16867;DHT22;8550;52.596;13.320;2024-01-10T19:54:19;-5.60;99.90
16867;DHT22;8550;52.596;13.320;2024-01-10T19:59:21;-5.80;99.90
16867;DHT22;8550;52.596;13.320;2024-01-10T20:04:23;-5.80;99.90
16867;DHT22;8550;52.596;13.320;2024-01-10T20:09:26;-5.80;99.90
16867;DHT22;8550;52.596;13.320;2024-01-10T20:14:28;-5.80;99.90
16867;DHT22;8550;52.596;13.320;2024-01-10T20:19:30;-5.80;99.90
16867;DHT22;8550;52.596;13.320;2024-01-10T20:24:33;-5.80;99.90
16867;DHT22;8550;52.596;13.320;2024-01-10T20:29:35;-5.90;99.90
16867;DHT22;8550;52.596;13.320;2024-01-10T20:34:37;-5.90;99.90
16867;DHT22;8550;52.596;13.320;2024-01-10T20:39:40;-5.90;99.90
16867;DHT22;8550;52.596;13.320;2024-01-10T20:44:42;-5.90;99.90
16867;DHT22;8550;52.596;13.320;2024-01-10T20:49:45;-5.90;99.90
16867;DHT22;8550;52.596;13.320;2024-01-10T20:54:48;-5.90;99.90
16867;DHT22;8550;52.596;13.320;2024-01-10T20:59:51;-5.90;99.90
16867;DHT22;8550;52.596;13.320;2024-01-10T21:04:54;-5.90;99.90
16867;DHT22;8550;52.596;13.320;2024-01-10T21:09:58;-6.00;99.90
16867;DHT22;8550;52.596;13.320;2024-01-10T21:14:59;-6.00;99.90
16867;DHT22;8550;52.596;13.320;2024-01-10T21:20:01;-6.00;99.90
16867;DHT22;8550;52.596;13.320;2024-01-10T21:25:06;-6.00;99.90
16867;DHT22;8550;52.596;13.320;2024-01-10T21:30:09;-6.00;99.90
16867;DHT22;8550;52.596;13.320;2024-01-10T21:35:11;-6.00;99.90
16867;DHT22;8550;52.596;13.320;2024-01-10T21:40:15;-6.00;99.90
16867;DHT22;8550;52.596;13.320;2024-01-10T21:45:17;-6.00;99.90
16867;DHT22;8550;52.596;13.320;2024-01-10T21:50:22;-6.10;99.90
16867;DHT22;8550;52.596;13.320;2024-01-10T21:55:26;-6.10;99.90
16867;DHT22;8550;52.596;13.320;2024-01-10T22:00:27;-6.00;99.90
16867;DHT22;8550;52.596;13.320;2024-01-10T22:05:30;-6.20;99.90
16867;DHT22;8550;52.596;13.320;2024-01-10T22:10:33;-6.20;99.90
16867;DHT22;8550;52.596;13.320;2024-01-10T22:15:35;-6.20;99.90
16867;DHT22;8550;52.596;13.320;2024-01-10T22:20:38;-6.30;99.90
16867;DHT22;8550;52.596;13.320;2024-01-10T22:25:41;-6.20;99.90
16867;DHT22;8550;52.596;13.320;2024-01-10T22:30:43;-6.20;99.90
16867;DHT22;8550;52.596;13.320;2024-01-10T22:35:45;-6.10;99.90
16867;DHT22;8550;52.596;13.320;2024-01-10T22:40:48;-6.10;99.90
16867;DHT22;8550;52.596;13.320;2024-01-10T22:45:51;-6.10;99.90
16867;DHT22;8550;52.596;13.320;2024-01-10T22:50:53;-6.20;99.90
16867;DHT22;8550;52.596;13.320;2024-01-10T22:55:56;-6.30;99.90
16867;DHT22;8550;52.596;13.320;2024-01-10T23:01:00;-6.30;99.90
16867;DHT22;8550;52.596;13.320;2024-01-10T23:06:02;-6.30;99.90
16867;DHT22;8550;52.596;13.320;2024-01-10T23:11:06;-6.40;99.90
16867;DHT22;8550;52.596;13.320;2024-01-10T23:16:08;-6.40;99.90
16867;DHT22;8550;52.596;13.320;2024-01-10T23:21:10;-6.50;99.90
16867;DHT22;8550;52.596;13.320;2024-01-10T23:26:14;-6.50;99.90
16867;DHT22;8550;52.596;13.320;2024-01-10T23:31:18;-6.50;99.90
16867;DHT22;8550;52.596;13.320;2024-01-10T23:36:20;-6.50;99.90
16867;DHT22;8550;52.596;13.320;2024-01-10T23:41:24;-6.40;99.90
16867;DHT22;8550;52.596;13.320;2024-01-10T23:46:26;-6.40;99.90
16867;DHT22;8550;52.596;13.320;2024-01-10T23:51:28;-6.30;99.90
16867;DHT22;8550;52.596;13.320;2024-01-10T23:56:31;-6.20;99.90
